createdAt,value
2022-08-03T00:00:26.355Z,20.58
2022-08-03T00:02:53.313Z,20.56
2022-08-03T00:05:20.185Z,20.55
2022-08-03T00:07:46.678Z,20.52
2022-08-03T00:10:16.030Z,20.47
2022-08-03T00:12:42.526Z,20.37
2022-08-03T00:15:15.141Z,20.37
2022-08-03T00:17:52.989Z,20.39
2022-08-03T00:20:21.928Z,20.40
2022-08-03T00:22:49.041Z,20.39
2022-08-03T00:25:15.801Z,20.36
2022-08-03T00:27:42.386Z,20.31
2022-08-03T00:30:09.352Z,20.29
2022-08-03T00:32:35.824Z,20.30
2022-08-03T00:35:09.834Z,20.27
2022-08-03T00:37:40.748Z,20.28
2022-08-03T00:40:18.379Z,20.25
2022-08-03T00:42:53.674Z,20.25
2022-08-03T00:45:24.948Z,20.22
2022-08-03T00:47:51.629Z,20.23
2022-08-03T00:50:19.706Z,20.21
2022-08-03T00:52:47.048Z,20.24
2022-08-03T00:55:13.874Z,20.20
2022-08-03T00:57:40.514Z,20.14
2022-08-03T01:00:08.839Z,20.08
2022-08-03T01:02:36.175Z,20.04
2022-08-03T01:05:02.654Z,20.00
2022-08-03T01:07:46.497Z,19.95
2022-08-03T01:10:36.552Z,19.91
2022-08-03T01:14:03.481Z,19.86
2022-08-03T01:16:10.038Z,19.85
2022-08-03T01:18:45.086Z,19.84
2022-08-03T01:21:18.135Z,19.79
2022-08-03T01:24:06.889Z,19.77
2022-08-03T01:27:03.383Z,19.73
2022-08-03T01:29:48.735Z,19.74
2022-08-03T01:33:02.388Z,19.70
2022-08-03T01:35:25.946Z,19.67
2022-08-03T01:37:57.772Z,19.67
2022-08-03T01:40:27.320Z,19.66
2022-08-03T01:42:57.510Z,19.64
2022-08-03T01:45:24.967Z,19.63
2022-08-03T01:47:52.920Z,19.64
2022-08-03T01:50:22.669Z,19.65
2022-08-03T01:52:50.063Z,19.63
2022-08-03T01:55:19.840Z,19.61
2022-08-03T01:58:05.233Z,19.59
2022-08-03T02:00:36.635Z,19.58
2022-08-03T02:03:06.346Z,19.58
2022-08-03T02:05:33.785Z,19.54
2022-08-03T02:08:03.499Z,19.50
2022-08-03T02:10:35.223Z,19.48
2022-08-03T02:13:04.175Z,19.44
2022-08-03T02:15:32.723Z,19.39
2022-08-03T02:18:01.876Z,19.37
2022-08-03T02:20:29.746Z,19.31
2022-08-03T02:22:56.217Z,19.30
2022-08-03T02:25:23.626Z,19.27
2022-08-03T02:27:58.503Z,19.26
2022-08-03T02:30:33.439Z,19.25
2022-08-03T02:33:01.620Z,19.27
2022-08-03T02:35:29.820Z,19.25
2022-08-03T02:38:01.032Z,19.25
2022-08-03T02:40:31.019Z,19.25
2022-08-03T02:43:05.371Z,19.29
2022-08-03T02:45:36.053Z,19.26
2022-08-03T02:48:05.377Z,19.25
2022-08-03T02:50:33.952Z,19.26
2022-08-03T02:53:03.004Z,19.26
2022-08-03T02:55:31.670Z,19.29
2022-08-03T02:58:01.477Z,19.26
2022-08-03T03:00:30.004Z,19.27
2022-08-03T03:03:00.539Z,19.25
2022-08-03T03:05:54.804Z,19.20
2022-08-03T03:08:20.854Z,19.19
2022-08-03T03:10:55.601Z,19.17
2022-08-03T03:13:23.109Z,19.13
2022-08-03T03:15:50.893Z,19.10
2022-08-03T03:18:22.048Z,19.09
2022-08-03T03:20:51.220Z,19.07
2022-08-03T03:23:18.274Z,19.02
2022-08-03T03:25:45.529Z,19.01
2022-08-03T03:28:12.506Z,18.98
2022-08-03T03:30:39.107Z,18.96
2022-08-03T03:33:05.780Z,18.92
2022-08-03T03:35:38.960Z,18.90
2022-08-03T03:38:06.518Z,18.91
2022-08-03T03:40:34.885Z,18.89
2022-08-03T03:43:01.490Z,18.88
2022-08-03T03:45:30.943Z,18.85
2022-08-03T03:48:00.134Z,18.84
2022-08-03T03:50:28.318Z,18.80
2022-08-03T03:52:54.848Z,18.80
2022-08-03T03:55:21.372Z,18.81
2022-08-03T03:57:47.847Z,18.83
2022-08-03T04:00:16.699Z,18.78
2022-08-03T04:02:43.550Z,18.78
2022-08-03T04:05:28.619Z,18.84
2022-08-03T04:08:19.374Z,18.82
2022-08-03T04:11:01.944Z,18.78
2022-08-03T04:13:38.714Z,18.75
2022-08-03T04:16:07.829Z,18.74
2022-08-03T04:18:36.682Z,18.75
2022-08-03T04:21:06.143Z,18.73
2022-08-03T04:23:35.806Z,18.75
2022-08-03T04:26:05.262Z,18.73
2022-08-03T04:28:34.117Z,18.74
2022-08-03T04:31:03.538Z,18.76
2022-08-03T04:33:34.898Z,18.73
2022-08-03T04:36:05.095Z,18.74
2022-08-03T04:38:36.627Z,18.78
2022-08-03T04:41:03.684Z,18.78
2022-08-03T04:43:33.358Z,18.86
2022-08-03T04:46:01.009Z,18.90
2022-08-03T04:48:28.448Z,18.90
2022-08-03T04:50:55.156Z,18.90
2022-08-03T04:53:21.794Z,18.89
2022-08-03T04:55:49.585Z,18.91
2022-08-03T04:58:16.115Z,18.94
2022-08-03T05:00:43.239Z,18.98
2022-08-03T05:03:19.499Z,18.99
2022-08-03T05:06:09.629Z,19.00
2022-08-03T05:08:45.996Z,19.00
2022-08-03T05:11:13.258Z,19.03
2022-08-03T05:13:39.741Z,19.07
2022-08-03T05:16:07.632Z,19.06
2022-08-03T05:18:34.284Z,19.07
2022-08-03T05:21:00.835Z,19.12
2022-08-03T05:23:27.774Z,19.13
2022-08-03T05:25:55.774Z,19.13
2022-08-03T05:28:22.418Z,19.14
2022-08-03T05:30:48.956Z,19.16
2022-08-03T05:33:15.528Z,19.21
2022-08-03T05:36:00.873Z,19.23
2022-08-03T05:38:35.054Z,19.25
2022-08-03T05:41:21.060Z,19.26
2022-08-03T05:43:50.368Z,19.35
2022-08-03T05:46:20.972Z,19.45
2022-08-03T05:48:47.556Z,19.52
2022-08-03T05:51:14.053Z,19.56
2022-08-03T05:53:44.267Z,19.64
2022-08-03T05:56:14.040Z,19.72
2022-08-03T05:58:46.775Z,19.84
2022-08-03T06:01:14.092Z,19.93
2022-08-03T06:03:40.866Z,20.02
2022-08-03T06:06:07.667Z,20.09
2022-08-03T06:08:34.544Z,20.18
2022-08-03T06:11:01.045Z,20.23
2022-08-03T06:13:27.554Z,20.34
2022-08-03T06:15:54.075Z,20.39
2022-08-03T06:18:20.601Z,20.47
2022-08-03T06:20:49.454Z,20.54
2022-08-03T06:23:17.743Z,20.61
2022-08-03T06:25:47.454Z,20.63
2022-08-03T06:28:42.664Z,20.72
2022-08-03T06:31:01.221Z,20.79
2022-08-03T06:34:34.505Z,20.88
2022-08-03T06:36:14.563Z,20.96
2022-08-03T06:38:41.085Z,21.05
2022-08-03T06:41:07.497Z,21.14
2022-08-03T06:43:37.606Z,21.18
2022-08-03T06:46:07.901Z,21.20
2022-08-03T06:48:34.280Z,21.24
2022-08-03T06:51:00.692Z,21.28
2022-08-03T06:53:27.068Z,21.32
2022-08-03T06:55:55.053Z,21.33
2022-08-03T06:58:22.236Z,21.32
2022-08-03T07:00:48.638Z,21.35
2022-08-03T07:03:15.163Z,21.42
2022-08-03T07:05:43.440Z,21.41
2022-08-03T07:08:11.011Z,21.41
2022-08-03T07:10:37.969Z,21.46
2022-08-03T07:13:05.404Z,21.50
2022-08-03T07:15:55.111Z,21.46
2022-08-03T07:18:28.295Z,21.58
2022-08-03T07:20:57.176Z,21.78
2022-08-03T07:23:23.604Z,21.90
2022-08-03T07:25:50.990Z,22.02
2022-08-03T07:28:17.886Z,22.01
2022-08-03T07:30:44.377Z,22.07
2022-08-03T07:33:11.078Z,22.14
2022-08-03T07:35:37.836Z,22.18
2022-08-03T07:38:04.297Z,22.25
2022-08-03T07:40:31.744Z,22.38
2022-08-03T07:42:58.873Z,22.42
2022-08-03T07:45:26.716Z,22.53
2022-08-03T07:47:54.122Z,22.46
2022-08-03T07:50:21.276Z,22.54
2022-08-03T07:52:48.157Z,22.64
2022-08-03T07:55:16.050Z,22.79
2022-08-03T07:57:42.597Z,22.91
2022-08-03T08:00:16.447Z,22.98
2022-08-03T08:02:43.677Z,23.04
2022-08-03T08:05:11.107Z,23.13
2022-08-03T08:07:38.571Z,23.21
2022-08-03T08:10:10.103Z,23.28
2022-08-03T08:12:37.654Z,23.40
2022-08-03T08:15:05.568Z,23.56
2022-08-03T08:17:40.750Z,23.67
2022-08-03T08:20:08.060Z,23.82
2022-08-03T08:22:35.696Z,23.93
2022-08-03T08:25:04.480Z,24.02
2022-08-03T08:28:22.276Z,24.09
2022-08-03T08:30:22.549Z,24.18
2022-08-03T08:32:49.976Z,24.27
2022-08-03T08:35:18.070Z,24.37
2022-08-03T08:37:51.129Z,24.50
2022-08-03T08:40:20.995Z,24.64
2022-08-03T08:42:57.844Z,24.61
2022-08-03T08:45:25.198Z,24.60
2022-08-03T08:47:53.926Z,24.72
2022-08-03T08:50:27.963Z,24.80
2022-08-03T08:52:55.961Z,24.89
2022-08-03T08:55:23.769Z,25.06
2022-08-03T08:57:59.323Z,25.25
2022-08-03T09:00:26.063Z,25.33
2022-08-03T09:02:53.146Z,25.30
2022-08-03T09:05:31.467Z,25.30
2022-08-03T09:08:07.825Z,25.40
2022-08-03T09:10:34.833Z,25.57
2022-08-03T09:13:02.287Z,25.54
2022-08-03T09:15:31.744Z,25.71
2022-08-03T09:18:00.769Z,25.85
2022-08-03T09:20:29.697Z,25.90
2022-08-03T09:24:00.578Z,25.94
2022-08-03T09:26:00.010Z,26.00
2022-08-03T09:28:59.736Z,26.03
2022-08-03T09:31:20.757Z,26.05
2022-08-03T09:33:48.786Z,26.03
2022-08-03T09:36:38.214Z,26.16
2022-08-03T09:39:07.044Z,26.23
2022-08-03T09:41:33.974Z,26.34
2022-08-03T09:44:00.551Z,26.32
2022-08-03T09:46:31.717Z,26.37
2022-08-03T09:49:12.645Z,26.53
2022-08-03T09:52:31.737Z,26.61
2022-08-03T09:54:31.577Z,26.69
2022-08-03T09:56:58.722Z,26.80
2022-08-03T09:59:30.426Z,26.99
2022-08-03T10:01:58.044Z,27.18
2022-08-03T10:04:24.696Z,27.30
2022-08-03T10:07:11.123Z,27.50
2022-08-03T10:09:38.419Z,27.68
2022-08-03T10:12:13.414Z,27.70
2022-08-03T10:14:43.849Z,28.01
2022-08-03T10:17:10.412Z,28.03
2022-08-03T10:19:36.977Z,28.19
2022-08-03T10:22:10.538Z,28.31
2022-08-03T10:24:39.345Z,28.49
2022-08-03T10:27:08.002Z,28.67
2022-08-03T10:29:40.152Z,28.70
2022-08-03T10:32:19.082Z,28.54
2022-08-03T10:34:47.143Z,28.51
2022-08-03T10:37:15.925Z,28.69
2022-08-03T10:39:53.409Z,28.84
2022-08-03T10:42:26.423Z,28.85
2022-08-03T10:45:12.852Z,28.91
2022-08-03T10:47:40.880Z,29.10
2022-08-03T10:50:08.807Z,29.12
2022-08-03T10:52:41.275Z,29.21
2022-08-03T10:56:01.107Z,28.98
2022-08-03T10:58:37.200Z,29.13
2022-08-03T11:01:09.093Z,29.43
2022-08-03T11:03:55.497Z,29.55
2022-08-03T11:06:24.791Z,29.62
2022-08-03T11:09:11.130Z,29.70
2022-08-03T11:11:39.850Z,29.92
2022-08-03T11:14:09.459Z,30.07
2022-08-03T11:16:39.175Z,30.09
2022-08-03T11:19:08.383Z,30.25
2022-08-03T11:21:52.960Z,30.42
2022-08-03T11:24:40.690Z,30.49
2022-08-03T11:27:29.930Z,30.52
2022-08-03T11:30:05.671Z,30.50
2022-08-03T11:32:38.443Z,30.52
2022-08-03T11:35:09.075Z,30.85
2022-08-03T11:37:36.056Z,31.05
2022-08-03T11:40:03.521Z,30.98
2022-08-03T11:42:33.267Z,31.13
2022-08-03T11:45:00.688Z,31.32
2022-08-03T11:47:29.022Z,31.39
2022-08-03T11:50:01.830Z,31.50
2022-08-03T11:52:34.989Z,31.67
2022-08-03T11:55:01.990Z,31.78
2022-08-03T11:59:16.434Z,31.93
2022-08-03T12:00:25.987Z,31.74
2022-08-03T12:03:00.529Z,31.98
2022-08-03T12:05:38.757Z,32.44
2022-08-03T12:08:07.191Z,32.66
2022-08-03T12:10:34.909Z,32.55
2022-08-03T12:13:05.890Z,32.76
2022-08-03T12:15:54.984Z,33.16
2022-08-03T12:18:22.968Z,33.32
2022-08-03T12:20:52.777Z,33.40
2022-08-03T12:23:19.830Z,33.41
2022-08-03T12:25:47.511Z,33.43
2022-08-03T12:28:28.267Z,33.53
2022-08-03T12:31:07.387Z,33.15
2022-08-03T12:33:56.397Z,33.64
2022-08-03T12:36:22.879Z,33.92
2022-08-03T12:39:08.318Z,33.99
2022-08-03T12:41:37.292Z,33.90
2022-08-03T12:44:05.924Z,33.76
2022-08-03T12:46:47.192Z,33.45
2022-08-03T12:49:15.831Z,33.66
2022-08-03T12:51:42.233Z,33.40
2022-08-03T12:54:09.773Z,33.18
2022-08-03T12:56:59.421Z,33.88
2022-08-03T12:59:53.483Z,34.04
2022-08-03T13:02:23.770Z,34.25
2022-08-03T13:04:51.533Z,34.52
2022-08-03T13:07:19.558Z,34.55
2022-08-03T13:09:53.298Z,34.35
2022-08-03T13:12:22.449Z,34.18
2022-08-03T13:14:54.969Z,34.17
2022-08-03T13:17:21.897Z,34.02
2022-08-03T13:19:49.587Z,34.08
2022-08-03T13:22:20.599Z,34.47
2022-08-03T13:24:49.664Z,34.07
2022-08-03T13:28:02.367Z,33.48
2022-08-03T13:30:04.563Z,33.01
2022-08-03T13:32:31.099Z,33.19
2022-08-03T13:35:02.447Z,33.31
2022-08-03T13:37:32.139Z,33.24
2022-08-03T13:40:02.386Z,33.58
2022-08-03T13:42:31.037Z,34.15
2022-08-03T13:44:57.636Z,34.23
2022-08-03T13:47:24.266Z,34.04
2022-08-03T13:49:59.815Z,34.22
2022-08-03T13:52:27.606Z,34.53
2022-08-03T13:54:54.115Z,34.66
2022-08-03T13:58:11.928Z,34.98
2022-08-03T14:00:08.002Z,34.28
2022-08-03T14:02:34.437Z,34.44
2022-08-03T14:05:00.968Z,34.65
2022-08-03T14:07:27.387Z,34.70
2022-08-03T14:09:53.809Z,34.50
2022-08-03T14:12:20.276Z,34.84
2022-08-03T14:14:46.794Z,34.72
2022-08-03T14:17:13.246Z,34.48
2022-08-03T14:19:52.605Z,34.83
2022-08-03T14:22:20.316Z,34.89
2022-08-03T14:24:46.827Z,35.23
2022-08-03T14:27:13.285Z,35.38
2022-08-03T14:29:39.691Z,35.30
2022-08-03T14:32:09.558Z,35.35
2022-08-03T14:34:38.702Z,34.11
2022-08-03T14:37:05.207Z,34.36
2022-08-03T14:39:58.205Z,34.53
2022-08-03T14:42:18.142Z,34.92
2022-08-03T14:44:44.636Z,35.13
2022-08-03T14:47:12.145Z,35.09
2022-08-03T14:50:37.372Z,35.55
2022-08-03T14:52:24.970Z,36.03
2022-08-03T14:54:51.553Z,35.93
2022-08-03T14:57:18.227Z,35.95
2022-08-03T14:59:56.851Z,36.07
2022-08-03T15:02:25.267Z,35.48
2022-08-03T15:04:52.665Z,35.78
2022-08-03T15:07:20.559Z,35.96
2022-08-03T15:09:47.501Z,35.70
2022-08-03T15:12:13.934Z,35.70
2022-08-03T15:14:40.423Z,35.66
2022-08-03T15:17:07.324Z,35.57
2022-08-03T15:20:01.077Z,35.82
2022-08-03T15:22:25.401Z,36.30
2022-08-03T15:26:28.638Z,36.27
2022-08-03T15:28:04.288Z,35.13
2022-08-03T15:30:33.809Z,34.99
2022-08-03T15:33:00.260Z,35.50
2022-08-03T15:35:29.335Z,35.69
2022-08-03T15:37:55.881Z,35.75
2022-08-03T15:40:22.348Z,35.69
2022-08-03T15:42:48.774Z,35.86
2022-08-03T15:45:17.860Z,36.45
2022-08-03T15:47:47.082Z,36.45
2022-08-03T15:50:13.634Z,36.56
2022-08-03T15:52:40.104Z,36.49
2022-08-03T15:55:07.530Z,36.00
2022-08-03T15:57:34.011Z,35.69
2022-08-03T16:00:20.510Z,35.57
2022-08-03T16:03:00.038Z,35.55
2022-08-03T16:05:26.688Z,35.96
2022-08-03T16:08:03.475Z,36.16
2022-08-03T16:10:33.920Z,36.78
2022-08-03T16:13:00.519Z,36.63
2022-08-03T16:15:28.438Z,36.32
2022-08-03T16:17:55.257Z,35.91
2022-08-03T16:20:31.515Z,35.94
2022-08-03T16:23:10.888Z,36.05
2022-08-03T16:25:41.038Z,35.96
2022-08-03T16:28:13.486Z,35.96
2022-08-03T16:30:42.342Z,36.34
2022-08-03T16:33:09.069Z,36.14
2022-08-03T16:35:38.569Z,36.21
2022-08-03T16:38:09.612Z,36.45
2022-08-03T16:40:39.398Z,36.99
2022-08-03T16:43:18.445Z,37.03
2022-08-03T16:45:46.876Z,37.77
2022-08-03T16:48:14.034Z,37.54
2022-08-03T16:50:41.152Z,37.46
2022-08-03T16:53:09.603Z,37.63
2022-08-03T16:55:43.574Z,38.09
2022-08-03T16:58:34.494Z,38.12
2022-08-03T17:01:21.945Z,38.00
2022-08-03T17:04:01.458Z,38.44
2022-08-03T17:06:35.433Z,38.53
2022-08-03T17:09:08.739Z,38.85
2022-08-03T17:11:43.861Z,39.09
2022-08-03T17:14:13.682Z,39.27
2022-08-03T17:16:51.908Z,38.69
2022-08-03T17:19:21.306Z,37.96
2022-08-03T17:21:57.016Z,37.60
2022-08-03T17:24:51.833Z,37.69
2022-08-03T17:28:50.554Z,37.55
2022-08-03T17:30:13.415Z,37.52
2022-08-03T17:32:52.599Z,37.61
2022-08-03T17:35:34.222Z,37.72
2022-08-03T17:38:06.646Z,37.70
2022-08-03T17:44:08.174Z,38.17
2022-08-03T17:46:14.133Z,38.30
2022-08-03T17:48:46.233Z,38.49
2022-08-03T17:51:20.941Z,38.16
2022-08-03T17:54:20.463Z,37.08
2022-08-03T17:57:21.982Z,35.94
2022-08-03T17:59:58.573Z,35.30
2022-08-03T18:03:06.751Z,34.61
2022-08-03T18:06:10.642Z,34.03
2022-08-03T18:08:46.519Z,33.73
2022-08-03T18:11:16.928Z,33.39
2022-08-03T18:14:30.245Z,33.14
2022-08-03T18:17:27.378Z,32.87
2022-08-03T18:20:32.871Z,32.60
2022-08-03T18:23:05.593Z,32.28
2022-08-03T18:25:45.412Z,32.06
2022-08-03T18:28:16.469Z,31.83
2022-08-03T18:30:53.687Z,31.70
2022-08-03T18:34:19.273Z,31.46
2022-08-03T18:36:17.946Z,31.33
2022-08-03T18:38:54.373Z,31.17
2022-08-03T18:41:32.716Z,31.03
2022-08-03T18:44:08.748Z,31.00
2022-08-03T18:47:25.249Z,30.89
2022-08-03T18:50:08.832Z,30.73
2022-08-03T18:53:21.189Z,30.65
2022-08-03T18:56:05.972Z,30.56
2022-08-03T18:58:56.593Z,30.42
2022-08-03T19:01:59.761Z,30.25
2022-08-03T19:04:35.616Z,30.11
2022-08-03T19:07:07.879Z,29.99
2022-08-03T19:09:48.346Z,29.82
2022-08-03T19:12:30.510Z,29.61
2022-08-03T19:15:10.431Z,29.40
2022-08-03T19:17:52.900Z,29.20
2022-08-03T19:20:28.198Z,29.01
2022-08-03T19:23:00.070Z,28.78
2022-08-03T19:25:41.501Z,28.67
2022-08-03T19:28:08.986Z,28.57
2022-08-03T19:30:38.833Z,28.50
2022-08-03T19:33:11.886Z,28.45
2022-08-03T19:35:57.330Z,28.32
2022-08-03T19:38:29.293Z,28.23
2022-08-03T19:41:02.661Z,28.08
2022-08-03T19:43:52.562Z,27.93
2022-08-03T19:46:30.583Z,27.80
2022-08-03T19:49:04.647Z,27.67
2022-08-03T19:52:00.839Z,27.58
2022-08-03T19:54:29.307Z,27.57
2022-08-03T19:57:01.851Z,27.47
2022-08-03T19:59:29.615Z,27.34
2022-08-03T20:01:56.137Z,27.19
2022-08-03T20:04:22.689Z,26.99
2022-08-03T20:06:52.227Z,26.83
2022-08-03T20:09:20.480Z,26.81
2022-08-03T20:11:47.868Z,26.84
2022-08-03T20:14:20.551Z,26.68
2022-08-03T20:16:54.262Z,26.55
2022-08-03T20:19:24.752Z,26.44
2022-08-03T20:22:01.668Z,26.31
2022-08-03T20:24:34.428Z,26.22
2022-08-03T20:27:10.795Z,26.10
2022-08-03T20:30:05.342Z,25.98
2022-08-03T20:32:28.468Z,25.91
2022-08-03T20:34:58.642Z,25.84
2022-08-03T20:37:27.760Z,25.80
2022-08-03T20:39:57.143Z,25.72
2022-08-03T20:42:23.819Z,25.65
2022-08-03T20:45:04.482Z,25.58
2022-08-03T20:47:35.750Z,25.44
2022-08-03T20:50:04.042Z,25.35
2022-08-03T20:52:35.059Z,25.28
2022-08-03T20:55:20.489Z,25.22
2022-08-03T20:58:06.782Z,25.16
2022-08-03T21:00:33.360Z,24.99
2022-08-03T21:02:59.841Z,24.91
2022-08-03T21:05:48.045Z,24.95
2022-08-03T21:08:15.860Z,24.82
2022-08-03T21:10:45.507Z,24.64
2022-08-03T21:12:54.576Z,37.63
2022-08-03T21:13:28.009Z,24.61
2022-08-03T21:16:02.668Z,24.57
2022-08-03T21:18:47.268Z,24.33
2022-08-03T21:21:17.671Z,24.22
2022-08-03T21:23:49.018Z,24.07
2022-08-03T21:26:20.690Z,24.00
2022-08-03T21:28:49.451Z,23.94
2022-08-03T21:31:24.463Z,23.94
2022-08-03T21:33:53.215Z,23.92
2022-08-03T21:36:19.976Z,23.93
2022-08-03T21:38:47.505Z,23.88
2022-08-03T21:41:23.381Z,23.68
2022-08-03T21:43:49.896Z,23.65
2022-08-03T21:46:20.038Z,23.59
2022-08-03T21:48:47.889Z,23.70
2022-08-03T21:51:18.510Z,23.65
2022-08-03T21:54:02.394Z,23.51
2022-08-03T21:56:36.841Z,23.31
2022-08-03T21:59:06.546Z,23.31
2022-08-03T22:01:35.697Z,23.31
2022-08-03T22:04:09.315Z,23.26
2022-08-03T22:06:42.425Z,23.20
2022-08-03T22:09:09.253Z,23.21
2022-08-03T22:11:37.519Z,23.15
2022-08-03T22:14:04.330Z,23.05
2022-08-03T22:16:31.401Z,22.95
2022-08-03T22:18:57.931Z,22.91
2022-08-03T22:21:36.386Z,22.83
2022-08-03T22:24:05.327Z,22.76
2022-08-03T22:26:34.927Z,22.79
2022-08-03T22:29:06.028Z,22.81
2022-08-03T22:31:58.484Z,22.75
2022-08-03T22:34:26.751Z,22.60
2022-08-03T22:36:56.603Z,22.51
2022-08-03T22:39:28.957Z,22.46
2022-08-03T22:41:59.371Z,22.44
2022-08-03T22:44:26.947Z,22.48
2022-08-03T22:46:55.639Z,22.46
2022-08-03T22:49:22.617Z,22.38
2022-08-03T22:51:51.807Z,22.34
2022-08-03T22:54:18.858Z,22.28
2022-08-03T22:56:49.711Z,22.21
2022-08-03T22:59:39.095Z,22.12
2022-08-03T23:02:20.339Z,22.15
2022-08-03T23:04:54.913Z,22.11
2022-08-03T23:07:30.184Z,22.02
2022-08-03T23:09:58.192Z,21.98
2022-08-03T23:12:25.380Z,21.91
2022-08-03T23:14:55.677Z,21.91
2022-08-03T23:17:23.687Z,21.85
2022-08-03T23:19:52.668Z,21.78
2022-08-03T23:22:30.203Z,21.68
2022-08-03T23:24:59.057Z,21.64
2022-08-03T23:27:27.488Z,21.61
2022-08-03T23:29:54.366Z,21.58
2022-08-03T23:32:21.239Z,21.55
2022-08-03T23:35:07.805Z,21.56
2022-08-03T23:37:34.917Z,21.54
2022-08-03T23:40:24.659Z,21.45
2022-08-03T23:42:51.776Z,21.43
2022-08-03T23:45:19.932Z,21.46
2022-08-03T23:47:48.366Z,21.41
2022-08-03T23:50:15.491Z,21.36
2022-08-03T23:53:11.548Z,21.25
2022-08-03T23:56:03.921Z,21.25
2022-08-03T23:58:33.238Z,21.21
